createdAt,value
2018-06-30T00:01:07.054Z,16.15
2018-06-30T00:03:41.311Z,16.17
2018-06-30T00:06:10.363Z,16.11
2018-06-30T00:08:38.970Z,16.10
2018-06-30T00:11:08.208Z,16.02
2018-06-30T00:13:37.071Z,16.03
2018-06-30T00:16:05.923Z,15.91
2018-06-30T00:18:34.820Z,15.91
2018-06-30T00:21:03.494Z,15.88
2018-06-30T00:23:32.272Z,15.88
2018-06-30T00:26:01.096Z,15.76
2018-06-30T00:28:29.901Z,15.76
2018-06-30T00:30:58.847Z,15.66
2018-06-30T00:33:27.612Z,15.77
2018-06-30T00:35:56.399Z,15.57
2018-06-30T00:38:25.252Z,15.66
2018-06-30T00:40:54.613Z,15.61
2018-06-30T00:43:23.530Z,15.65
2018-06-30T00:45:58.285Z,15.58
2018-06-30T00:48:27.086Z,15.57
2018-06-30T00:50:55.879Z,15.50
2018-06-30T00:53:24.764Z,15.45
2018-06-30T00:55:53.547Z,15.45
2018-06-30T00:58:22.375Z,15.17
2018-06-30T01:00:51.211Z,15.30
2018-06-30T01:03:20.032Z,15.35
2018-06-30T01:05:48.875Z,15.48
2018-06-30T01:08:17.695Z,15.29
2018-06-30T01:10:46.482Z,15.34
2018-06-30T01:13:15.305Z,15.41
2018-06-30T01:15:44.092Z,15.23
2018-06-30T01:18:12.969Z,15.20
2018-06-30T01:20:41.727Z,15.14
2018-06-30T01:23:10.358Z,15.11
2018-06-30T01:25:39.149Z,15.05
2018-06-30T01:28:07.948Z,15.07
2018-06-30T01:30:36.594Z,15.18
2018-06-30T01:33:05.489Z,15.06
2018-06-30T01:35:34.243Z,15.15
2018-06-30T01:38:03.029Z,15.15
2018-06-30T01:40:31.841Z,15.16
2018-06-30T01:43:00.647Z,15.18
2018-06-30T01:45:35.437Z,15.00
2018-06-30T01:48:04.274Z,15.09
2018-06-30T01:50:33.066Z,15.06
2018-06-30T01:53:01.913Z,15.01
2018-06-30T01:55:30.772Z,14.85
2018-06-30T01:57:59.535Z,14.81
2018-06-30T02:00:28.372Z,14.82
2018-06-30T02:02:57.143Z,14.83
2018-06-30T02:05:26.018Z,14.80
2018-06-30T02:07:54.852Z,14.75
2018-06-30T02:10:23.701Z,14.81
2018-06-30T02:12:52.719Z,14.75
2018-06-30T02:15:21.531Z,14.68
2018-06-30T02:17:50.383Z,14.69
2018-06-30T02:20:19.220Z,14.56
2018-06-30T02:22:47.834Z,14.46
2018-06-30T02:25:16.619Z,14.49
2018-06-30T02:27:45.401Z,14.45
2018-06-30T02:30:14.463Z,14.46
2018-06-30T02:32:43.229Z,14.46
2018-06-30T02:35:12.056Z,14.36
2018-06-30T02:37:40.818Z,14.26
2018-06-30T02:40:09.824Z,14.19
2018-06-30T02:42:38.700Z,14.36
2018-06-30T02:45:07.459Z,14.32
2018-06-30T02:47:36.277Z,14.31
2018-06-30T02:50:05.813Z,14.28
2018-06-30T02:52:34.640Z,14.32
2018-06-30T02:55:03.713Z,14.21
2018-06-30T02:57:32.382Z,14.30
2018-06-30T03:00:01.187Z,14.15
2018-06-30T03:02:30.412Z,14.16
2018-06-30T03:04:59.172Z,14.19
2018-06-30T03:07:28.039Z,14.04
2018-06-30T03:09:56.835Z,13.94
2018-06-30T03:12:25.647Z,14.00
2018-06-30T03:14:54.259Z,13.96
2018-06-30T03:17:23.039Z,14.00
2018-06-30T03:19:51.852Z,14.14
2018-06-30T03:22:20.660Z,14.04
2018-06-30T03:24:49.421Z,13.95
2018-06-30T03:27:18.272Z,13.97
2018-06-30T03:29:46.922Z,13.93
2018-06-30T03:32:15.650Z,13.97
2018-06-30T03:34:44.400Z,13.96
2018-06-30T03:37:13.164Z,14.07
2018-06-30T03:39:41.990Z,14.09
2018-06-30T03:42:10.821Z,13.96
2018-06-30T03:44:39.680Z,14.10
2018-06-30T03:47:08.455Z,14.22
2018-06-30T03:49:37.500Z,15.17
2018-06-30T03:52:06.169Z,15.68
2018-06-30T03:54:34.994Z,16.08
2018-06-30T03:57:03.671Z,16.48
2018-06-30T03:59:32.370Z,16.48
2018-06-30T04:02:01.142Z,16.55
2018-06-30T04:04:29.772Z,16.62
2018-06-30T04:06:58.616Z,16.15
2018-06-30T04:09:27.528Z,15.67
2018-06-30T04:11:56.289Z,15.18
2018-06-30T04:14:25.080Z,15.05
2018-06-30T04:16:53.839Z,15.44
2018-06-30T04:19:22.651Z,15.91
2018-06-30T04:21:51.489Z,16.32
2018-06-30T04:24:20.318Z,16.95
2018-06-30T04:26:49.347Z,17.32
2018-06-30T04:29:17.938Z,17.67
2018-06-30T04:31:46.573Z,17.81
2018-06-30T04:34:15.411Z,17.69
2018-06-30T04:36:44.220Z,18.05
2018-06-30T04:39:12.985Z,17.96
2018-06-30T04:41:41.622Z,18.30
2018-06-30T04:44:10.400Z,17.91
2018-06-30T04:46:39.140Z,17.91
2018-06-30T04:49:07.920Z,17.57
2018-06-30T04:51:36.760Z,17.20
2018-06-30T04:54:05.559Z,18.06
2018-06-30T04:56:34.344Z,18.26
2018-06-30T04:59:03.086Z,17.97
2018-06-30T05:01:31.922Z,18.33
2018-06-30T05:04:00.699Z,18.63
2018-06-30T05:06:29.508Z,17.84
2018-06-30T05:08:58.252Z,18.92
2018-06-30T05:11:27.120Z,17.35
2018-06-30T05:13:55.948Z,18.81
2018-06-30T05:16:24.612Z,18.27
2018-06-30T05:18:53.360Z,18.34
2018-06-30T05:21:22.355Z,18.20
2018-06-30T05:23:50.997Z,18.49
2018-06-30T05:26:19.590Z,18.93
2018-06-30T05:28:48.737Z,19.23
2018-06-30T05:31:17.501Z,18.61
2018-06-30T05:33:51.645Z,19.43
2018-06-30T05:36:20.460Z,18.97
2018-06-30T05:38:49.287Z,18.39
2018-06-30T05:41:18.096Z,19.08
2018-06-30T05:43:46.938Z,18.96
2018-06-30T05:46:15.543Z,19.50
2018-06-30T05:48:44.438Z,19.64
2018-06-30T05:51:13.485Z,19.82
2018-06-30T05:53:42.363Z,18.65
2018-06-30T05:56:11.474Z,20.14
2018-06-30T05:58:40.332Z,18.97
2018-06-30T06:01:09.282Z,19.55
2018-06-30T06:03:38.156Z,19.73
2018-06-30T06:06:07.060Z,19.73
2018-06-30T06:08:35.870Z,19.19
2018-06-30T06:11:04.477Z,19.89
2018-06-30T06:13:33.376Z,19.43
2018-06-30T06:16:02.166Z,19.21
2018-06-30T06:18:32.074Z,19.66
2018-06-30T06:21:00.902Z,19.54
2018-06-30T06:23:30.253Z,20.33
2018-06-30T06:25:59.292Z,20.49
2018-06-30T06:28:28.080Z,19.53
2018-06-30T06:30:56.987Z,19.65
2018-06-30T06:33:25.839Z,20.35
2018-06-30T06:35:54.825Z,20.81
2018-06-30T06:38:23.657Z,21.11
2018-06-30T06:40:52.444Z,20.07
2018-06-30T06:43:21.253Z,21.14
2018-06-30T06:45:50.083Z,20.80
2018-06-30T06:48:18.840Z,20.40
2018-06-30T06:50:47.944Z,21.14
2018-06-30T06:53:16.759Z,20.74
2018-06-30T06:55:45.595Z,21.33
2018-06-30T06:58:14.400Z,21.37
2018-06-30T07:00:43.248Z,21.33
2018-06-30T07:03:11.984Z,21.53
2018-06-30T07:05:40.752Z,22.16
2018-06-30T07:08:09.541Z,21.91
2018-06-30T07:10:38.351Z,21.12
2018-06-30T07:13:07.131Z,21.99
2018-06-30T07:15:36.032Z,21.73
2018-06-30T07:18:04.863Z,21.63
2018-06-30T07:20:33.710Z,22.39
2018-06-30T07:23:02.551Z,22.05
2018-06-30T07:25:31.417Z,21.57
2018-06-30T07:28:00.271Z,21.16
2018-06-30T07:30:29.096Z,21.46
2018-06-30T07:32:57.783Z,21.49
2018-06-30T07:35:26.436Z,21.67
2018-06-30T07:37:55.810Z,22.31
2018-06-30T07:40:25.012Z,22.28
2018-06-30T07:42:53.840Z,22.54
2018-06-30T07:45:28.579Z,23.23
2018-06-30T07:47:57.388Z,22.22
2018-06-30T07:50:26.293Z,22.96
2018-06-30T07:52:55.083Z,23.57
2018-06-30T07:55:23.964Z,23.17
2018-06-30T07:57:52.783Z,22.35
2018-06-30T08:00:21.751Z,23.34
2018-06-30T08:02:50.825Z,22.81
2018-06-30T08:05:19.451Z,22.86
2018-06-30T08:07:48.303Z,22.95
2018-06-30T08:10:16.927Z,23.24
2018-06-30T08:12:45.726Z,23.73
2018-06-30T08:15:14.572Z,23.64
2018-06-30T08:17:43.944Z,22.82
2018-06-30T08:20:12.681Z,23.72
2018-06-30T08:22:41.495Z,23.26
2018-06-30T08:25:10.294Z,23.16
2018-06-30T08:27:40.943Z,23.16
2018-06-30T08:30:09.801Z,22.93
2018-06-30T08:32:38.854Z,23.12
2018-06-30T08:35:07.869Z,23.31
2018-06-30T08:37:36.769Z,24.26
2018-06-30T08:40:05.761Z,24.57
2018-06-30T08:42:35.179Z,23.70
2018-06-30T08:45:04.047Z,24.43
2018-06-30T08:47:32.623Z,24.39
2018-06-30T08:50:01.532Z,24.39
2018-06-30T08:52:30.460Z,23.31
2018-06-30T08:54:59.244Z,23.55
2018-06-30T08:57:28.061Z,24.09
2018-06-30T08:59:57.454Z,24.06
2018-06-30T09:02:26.247Z,23.75
2018-06-30T09:04:55.121Z,24.21
2018-06-30T09:07:23.919Z,23.77
2018-06-30T09:09:53.165Z,24.19
2018-06-30T09:12:21.860Z,25.02
2018-06-30T09:14:50.616Z,25.23
2018-06-30T09:17:19.688Z,24.72
2018-06-30T09:19:48.480Z,24.80
2018-06-30T09:22:17.515Z,25.19
2018-06-30T09:24:46.259Z,24.53
2018-06-30T09:27:15.068Z,23.57
2018-06-30T09:29:43.927Z,24.49
2018-06-30T09:32:12.845Z,25.50
2018-06-30T09:34:41.603Z,24.69
2018-06-30T09:37:12.428Z,24.78
2018-06-30T09:39:41.021Z,24.86
2018-06-30T09:42:09.889Z,24.14
2018-06-30T09:44:38.791Z,24.62
2018-06-30T09:47:07.908Z,25.36
2018-06-30T09:49:36.725Z,24.43
2018-06-30T09:52:05.539Z,24.59
2018-06-30T09:54:34.381Z,25.65
2018-06-30T09:57:03.220Z,24.73
2018-06-30T09:59:32.026Z,24.79
2018-06-30T10:02:00.817Z,24.55
2018-06-30T10:04:29.583Z,24.65
2018-06-30T10:06:58.491Z,24.58
2018-06-30T10:09:27.260Z,24.98
2018-06-30T10:11:56.358Z,25.07
2018-06-30T10:14:25.196Z,25.55
2018-06-30T10:16:53.964Z,24.56
2018-06-30T10:19:22.920Z,24.60
2018-06-30T10:21:51.647Z,24.35
2018-06-30T10:24:20.450Z,24.36
2018-06-30T10:26:49.053Z,25.51
2018-06-30T10:29:17.902Z,24.72
2018-06-30T10:31:46.815Z,25.18
2018-06-30T10:34:15.944Z,24.62
2018-06-30T10:36:44.768Z,24.43
2018-06-30T10:39:13.641Z,24.42
2018-06-30T10:41:42.444Z,25.06
2018-06-30T10:44:11.351Z,25.11
2018-06-30T10:46:40.147Z,24.98
2018-06-30T10:49:09.423Z,24.98
2018-06-30T10:51:38.179Z,25.60
2018-06-30T10:54:07.047Z,24.93
2018-06-30T10:56:35.861Z,24.11
2018-06-30T10:59:04.996Z,24.53
2018-06-30T11:01:33.800Z,25.39
2018-06-30T11:04:02.755Z,24.84
2018-06-30T11:06:31.374Z,24.82
2018-06-30T11:09:00.255Z,24.30
2018-06-30T11:11:29.067Z,25.43
2018-06-30T11:13:57.803Z,25.62
2018-06-30T11:16:26.658Z,25.81
2018-06-30T11:18:55.399Z,25.06
2018-06-30T11:21:24.102Z,24.75
2018-06-30T11:23:52.875Z,24.72
2018-06-30T11:26:21.727Z,25.10
2018-06-30T11:28:50.514Z,25.01
2018-06-30T11:31:19.126Z,25.40
2018-06-30T11:33:48.242Z,25.49
2018-06-30T11:36:17.181Z,24.69
2018-06-30T11:38:46.107Z,24.85
2018-06-30T11:41:15.202Z,25.22
2018-06-30T11:43:44.514Z,24.94
2018-06-30T11:46:14.080Z,25.65
2018-06-30T11:48:42.864Z,24.77
2018-06-30T11:51:11.505Z,25.60
2018-06-30T11:53:40.409Z,25.28
2018-06-30T11:56:09.402Z,26.09
2018-06-30T11:58:38.592Z,25.26
2018-06-30T12:01:07.671Z,25.05
2018-06-30T12:03:36.464Z,25.09
2018-06-30T12:06:05.784Z,24.95
2018-06-30T12:08:35.134Z,25.21
2018-06-30T12:11:04.189Z,24.68
2018-06-30T12:13:32.976Z,24.41
2018-06-30T12:16:01.871Z,24.65
2018-06-30T12:18:30.675Z,25.19
2018-06-30T12:20:59.492Z,25.33
2018-06-30T12:23:28.319Z,25.31
2018-06-30T12:25:57.090Z,25.29
2018-06-30T12:28:25.911Z,25.16
2018-06-30T12:30:54.676Z,25.41
2018-06-30T12:33:23.467Z,25.31
2018-06-30T12:35:52.619Z,24.78
2018-06-30T12:38:21.430Z,24.62
2018-06-30T12:40:50.454Z,24.85
2018-06-30T12:43:19.596Z,25.52
2018-06-30T12:45:51.295Z,25.81
2018-06-30T12:48:20.172Z,25.76
2018-06-30T12:50:49.333Z,25.78
2018-06-30T12:53:18.114Z,25.56
2018-06-30T12:55:46.884Z,25.34
2018-06-30T12:58:16.457Z,25.60
2018-06-30T13:00:45.357Z,26.23
2018-06-30T13:03:14.468Z,25.73
2018-06-30T13:05:43.383Z,25.89
2018-06-30T13:08:12.402Z,26.01
2018-06-30T13:10:41.168Z,25.79
2018-06-30T13:13:10.371Z,25.20
2018-06-30T13:15:39.135Z,25.68
2018-06-30T13:18:07.960Z,25.78
2018-06-30T13:20:37.030Z,25.85
2018-06-30T13:23:05.828Z,25.57
2018-06-30T13:25:34.700Z,25.87
2018-06-30T13:28:03.843Z,26.06
2018-06-30T13:30:32.629Z,25.65
2018-06-30T13:33:01.732Z,26.21
2018-06-30T13:35:30.828Z,25.88
2018-06-30T13:37:59.693Z,25.62
2018-06-30T13:40:28.475Z,25.72
2018-06-30T13:42:57.588Z,25.86
2018-06-30T13:45:32.495Z,25.58
2018-06-30T13:48:01.743Z,25.48
2018-06-30T13:50:30.616Z,25.53
2018-06-30T13:52:59.409Z,26.13
2018-06-30T13:55:28.518Z,26.20
2018-06-30T13:57:57.311Z,26.13
2018-06-30T14:00:26.153Z,25.83
2018-06-30T14:02:55.556Z,25.94
2018-06-30T14:05:24.307Z,25.81
2018-06-30T14:07:53.261Z,26.01
2018-06-30T14:10:22.364Z,25.82
2018-06-30T14:12:51.124Z,25.89
2018-06-30T14:15:19.887Z,26.70
2018-06-30T14:17:49.091Z,26.69
2018-06-30T14:20:17.875Z,26.10
2018-06-30T14:22:46.690Z,25.84
2018-06-30T14:25:15.906Z,25.88
2018-06-30T14:27:44.680Z,26.01
2018-06-30T14:30:13.597Z,26.09
2018-06-30T14:32:42.807Z,26.70
2018-06-30T14:35:12.024Z,26.32
2018-06-30T14:37:40.930Z,26.10
2018-06-30T14:40:10.211Z,26.37
2018-06-30T14:42:38.986Z,26.43
2018-06-30T14:45:07.830Z,26.81
2018-06-30T14:47:36.794Z,26.26
2018-06-30T14:50:05.892Z,25.97
2018-06-30T14:52:34.839Z,26.08
2018-06-30T14:55:04.182Z,26.38
2018-06-30T14:57:32.988Z,25.87
2018-06-30T15:00:01.780Z,25.92
2018-06-30T15:02:30.961Z,25.86
2018-06-30T15:04:59.989Z,25.56
2018-06-30T15:07:28.805Z,25.73
2018-06-30T15:09:57.950Z,26.67
2018-06-30T15:12:26.738Z,26.15
2018-06-30T15:14:55.559Z,25.71
2018-06-30T15:17:24.613Z,25.97
2018-06-30T15:19:53.438Z,25.80
2018-06-30T15:22:22.216Z,25.80
2018-06-30T15:24:51.361Z,25.83
2018-06-30T15:27:20.227Z,25.76
2018-06-30T15:29:49.010Z,25.75
2018-06-30T15:32:19.710Z,25.72
2018-06-30T15:34:50.336Z,25.51
2018-06-30T15:37:21.302Z,25.55
2018-06-30T15:39:50.307Z,25.81
2018-06-30T15:42:19.120Z,25.47
2018-06-30T15:44:48.031Z,25.87
2018-06-30T15:47:16.791Z,25.74
2018-06-30T15:49:45.412Z,25.85
2018-06-30T15:52:14.636Z,25.77
2018-06-30T15:54:43.423Z,25.91
2018-06-30T15:57:12.236Z,25.79
2018-06-30T15:59:41.415Z,25.64
2018-06-30T16:02:10.244Z,25.86
2018-06-30T16:04:40.834Z,25.43
2018-06-30T16:07:10.240Z,25.32
2018-06-30T16:09:39.019Z,25.24
2018-06-30T16:12:07.849Z,25.38
2018-06-30T16:14:36.811Z,25.33
2018-06-30T16:17:05.876Z,25.25
2018-06-30T16:19:34.647Z,25.41
2018-06-30T16:22:03.797Z,25.53
2018-06-30T16:24:32.586Z,25.37
2018-06-30T16:27:01.412Z,25.44
2018-06-30T16:29:30.568Z,25.04
2018-06-30T16:31:59.543Z,25.12
2018-06-30T16:34:28.340Z,25.10
2018-06-30T16:36:57.419Z,24.91
2018-06-30T16:39:26.306Z,25.14
2018-06-30T16:41:55.198Z,25.09
2018-06-30T16:44:24.336Z,25.14
2018-06-30T16:46:53.213Z,24.89
2018-06-30T16:49:22.080Z,24.85
2018-06-30T16:51:51.219Z,25.07
2018-06-30T16:54:20.364Z,24.88
2018-06-30T16:56:49.388Z,24.70
2018-06-30T16:59:18.607Z,24.78
2018-06-30T17:01:47.383Z,24.76
2018-06-30T17:04:16.151Z,24.85
2018-06-30T17:06:45.395Z,24.65
2018-06-30T17:09:15.053Z,24.67
2018-06-30T17:11:43.842Z,24.57
2018-06-30T17:14:12.993Z,24.59
2018-06-30T17:16:41.796Z,24.67
2018-06-30T17:19:10.621Z,24.49
2018-06-30T17:21:39.772Z,24.56
2018-06-30T17:24:08.635Z,24.35
2018-06-30T17:26:37.536Z,24.38
2018-06-30T17:29:06.655Z,24.33
2018-06-30T17:31:35.476Z,24.38
2018-06-30T17:34:04.679Z,24.30
2018-06-30T17:36:33.835Z,24.24
2018-06-30T17:39:03.280Z,24.18
2018-06-30T17:41:32.047Z,24.10
2018-06-30T17:44:01.438Z,23.94
2018-06-30T17:46:30.229Z,24.05
2018-06-30T17:48:59.020Z,23.98
2018-06-30T17:51:28.318Z,24.02
2018-06-30T17:53:57.087Z,24.06
2018-06-30T17:56:25.919Z,24.01
2018-06-30T17:58:54.977Z,23.85
2018-06-30T18:01:23.778Z,23.79
2018-06-30T18:03:52.653Z,23.81
2018-06-30T18:06:22.238Z,23.88
2018-06-30T18:08:51.064Z,23.77
2018-06-30T18:11:19.945Z,23.81
2018-06-30T18:13:49.064Z,23.65
2018-06-30T18:16:17.844Z,23.62
2018-06-30T18:18:46.759Z,23.51
2018-06-30T18:21:16.041Z,23.44
2018-06-30T18:23:44.870Z,23.45
2018-06-30T18:26:13.466Z,23.40
2018-06-30T18:28:42.376Z,23.26
2018-06-30T18:31:11.181Z,23.19
2018-06-30T18:33:39.827Z,23.23
2018-06-30T18:36:08.769Z,23.09
2018-06-30T18:38:37.574Z,23.05
2018-06-30T18:41:06.438Z,23.07
2018-06-30T18:43:35.558Z,22.96
2018-06-30T18:46:07.379Z,22.91
2018-06-30T18:48:36.545Z,22.86
2018-06-30T18:51:05.480Z,22.85
2018-06-30T18:53:35.206Z,22.77
2018-06-30T18:56:04.527Z,22.68
2018-06-30T18:58:33.391Z,22.65
2018-06-30T19:01:02.192Z,22.59
2018-06-30T19:03:31.290Z,22.44
2018-06-30T19:06:00.085Z,22.38
2018-06-30T19:08:28.869Z,22.36
2018-06-30T19:10:58.391Z,22.28
2018-06-30T19:13:27.256Z,22.19
2018-06-30T19:15:56.035Z,22.09
2018-06-30T19:18:25.372Z,22.00
2018-06-30T19:20:54.269Z,22.00
2018-06-30T19:23:23.114Z,21.92
2018-06-30T19:25:52.231Z,21.86
2018-06-30T19:28:21.053Z,21.73
2018-06-30T19:30:49.867Z,21.73
2018-06-30T19:33:18.728Z,21.54
2018-06-30T19:35:47.646Z,21.48
2018-06-30T19:38:17.303Z,21.41
2018-06-30T19:40:46.521Z,21.33
2018-06-30T19:43:15.352Z,21.32
2018-06-30T19:45:50.244Z,21.27
2018-06-30T19:48:19.103Z,21.21
2018-06-30T19:50:47.890Z,21.09
2018-06-30T19:53:16.736Z,21.04
2018-06-30T19:55:45.555Z,20.98
2018-06-30T19:58:14.670Z,20.97
2018-06-30T20:00:43.394Z,20.80
2018-06-30T20:03:12.500Z,20.80
2018-06-30T20:05:41.413Z,20.72
2018-06-30T20:08:10.179Z,20.68
2018-06-30T20:10:39.034Z,20.63
2018-06-30T20:13:07.855Z,20.60
2018-06-30T20:15:36.659Z,20.46
2018-06-30T20:18:05.472Z,20.37
2018-06-30T20:20:34.424Z,20.35
2018-06-30T20:23:03.195Z,20.30
2018-06-30T20:25:32.119Z,20.22
2018-06-30T20:28:00.903Z,20.12
2018-06-30T20:30:30.013Z,20.19
2018-06-30T20:32:58.779Z,20.10
2018-06-30T20:35:27.588Z,19.95
2018-06-30T20:37:56.531Z,19.85
2018-06-30T20:40:25.460Z,19.78
2018-06-30T20:42:54.231Z,19.73
2018-06-30T20:45:23.247Z,19.65
2018-06-30T20:47:52.107Z,19.68
2018-06-30T20:50:21.052Z,19.61
2018-06-30T20:52:49.916Z,19.56
2018-06-30T20:55:18.721Z,19.53
2018-06-30T20:57:47.555Z,19.48
2018-06-30T21:00:16.269Z,19.48
2018-06-30T21:02:45.477Z,19.41
2018-06-30T21:05:14.327Z,19.30
2018-06-30T21:07:43.199Z,19.29
2018-06-30T21:10:11.988Z,19.27
2018-06-30T21:12:40.811Z,19.23
2018-06-30T21:15:09.727Z,19.22
2018-06-30T21:17:38.655Z,19.21
2018-06-30T21:20:07.501Z,19.13
2018-06-30T21:22:36.331Z,19.12
2018-06-30T21:25:05.244Z,19.06
2018-06-30T21:27:34.145Z,18.98
2018-06-30T21:30:03.056Z,18.92
2018-06-30T21:32:31.894Z,18.96
2018-06-30T21:35:00.663Z,18.87
2018-06-30T21:37:29.536Z,18.85
2018-06-30T21:39:58.376Z,18.77
2018-06-30T21:42:27.225Z,18.73
2018-06-30T21:44:56.029Z,18.65
2018-06-30T21:47:25.203Z,18.58
2018-06-30T21:49:54.011Z,18.55
2018-06-30T21:52:22.688Z,18.54
2018-06-30T21:54:52.216Z,18.55
2018-06-30T21:57:21.090Z,18.46
2018-06-30T21:59:49.919Z,18.42
2018-06-30T22:02:18.725Z,18.34
2018-06-30T22:04:47.656Z,18.27
2018-06-30T22:07:16.460Z,18.20
2018-06-30T22:09:45.392Z,18.09
2018-06-30T22:12:14.360Z,18.12
2018-06-30T22:14:43.239Z,18.10
2018-06-30T22:17:12.148Z,18.02
2018-06-30T22:19:40.998Z,17.92
2018-06-30T22:22:09.816Z,17.95
2018-06-30T22:24:38.670Z,17.92
2018-06-30T22:27:07.314Z,17.84
2018-06-30T22:29:36.206Z,17.71
2018-06-30T22:32:05.168Z,17.70
2018-06-30T22:34:34.222Z,17.69
2018-06-30T22:37:03.219Z,17.69
2018-06-30T22:39:48.908Z,17.58
2018-06-30T22:42:17.810Z,17.54
2018-06-30T22:44:46.535Z,17.52
2018-06-30T22:47:15.688Z,17.49
2018-06-30T22:49:44.900Z,17.46
2018-06-30T22:52:13.592Z,17.48
2018-06-30T22:54:42.732Z,17.36
2018-06-30T22:57:11.622Z,17.32
2018-06-30T22:59:41.019Z,17.27
2018-06-30T23:02:10.393Z,17.34
2018-06-30T23:04:39.199Z,17.17
2018-06-30T23:07:07.914Z,17.32
2018-06-30T23:09:36.791Z,17.18
2018-06-30T23:12:05.727Z,17.12
2018-06-30T23:14:34.340Z,17.08
2018-06-30T23:17:03.171Z,16.98
2018-06-30T23:19:31.835Z,16.88
2018-06-30T23:22:00.911Z,16.80
2018-06-30T23:24:29.671Z,16.97
2018-06-30T23:26:58.629Z,16.88
2018-06-30T23:29:27.663Z,16.88
2018-06-30T23:31:56.544Z,16.88
2018-06-30T23:34:25.408Z,16.89
2018-06-30T23:36:54.485Z,16.77
2018-06-30T23:39:23.288Z,16.82
2018-06-30T23:41:52.044Z,16.73
2018-06-30T23:44:21.103Z,16.90
2018-06-30T23:46:49.880Z,16.81
2018-06-30T23:49:18.689Z,16.58
2018-06-30T23:51:47.748Z,16.72
2018-06-30T23:54:16.591Z,16.67
2018-06-30T23:56:45.423Z,16.67
2018-06-30T23:59:14.207Z,16.68
